Time;durP1;ratioP1;P1;durP2;ratioP2;P2;SDS_P1;SDS_P2;PMS_P1;PMS_P2;Temp;Humidity;BMP_temperature;BMP_pressure;BME280_temperature;BME280_humidity;BME280_pressure;Samples;Min_cycle;Max_cycle;Signal;HPM_P1;HPM_P2
2021/01/15 00:01:20;;;;;;;28.17;10.77;;;-0.80;99.90;;;;;;4991870;28;20208;-68
2021/01/15 00:03:47;;;;;;;27.13;10.87;;;-0.80;99.90;;;;;;4993159;28;20207;-68
2021/01/15 00:06:20;;;;;;;30.20;11.37;;;-0.90;99.90;;;;;;5029373;28;20568;-68
2021/01/15 00:08:47;;;;;;;30.33;11.63;;;-0.90;99.90;;;;;;5068464;28;20197;-68
2021/01/15 00:11:18;;;;;;;29.23;10.27;;;-0.90;99.90;;;;;;5031056;28;20198;-68
2021/01/15 00:13:44;;;;;;;24.37;10.17;;;-1.00;99.90;;;;;;5031021;28;20238;-68
2021/01/15 00:16:19;;;;;;;23.23;10.37;;;-1.00;99.90;;;;;;4978395;28;20202;-68
2021/01/15 00:18:46;;;;;;;23.10;10.07;;;-1.00;99.90;;;;;;5011136;28;20296;-68
2021/01/15 00:21:23;;;;;;;21.83;9.57;;;-1.00;99.90;;;;;;5011154;28;20626;-68
2021/01/15 00:23:52;;;;;;;23.40;9.20;;;-1.00;99.90;;;;;;5011377;28;20237;-68
2021/01/15 00:26:19;;;;;;;22.10;9.20;;;-1.00;99.90;;;;;;5011194;28;20211;-68
2021/01/15 00:28:46;;;;;;;22.87;9.50;;;-1.00;99.90;;;;;;5030740;28;20202;-68
2021/01/15 00:31:13;;;;;;;20.43;8.70;;;-1.00;99.90;;;;;;5031034;28;20202;-68
2021/01/15 00:33:41;;;;;;;17.87;7.97;;;-1.00;99.90;;;;;;5011265;28;20356;-68
2021/01/15 00:36:09;;;;;;;17.70;7.63;;;-1.00;99.90;;;;;;5011542;28;20529;-68
2021/01/15 00:38:37;;;;;;;16.93;7.63;;;-1.00;99.90;;;;;;5010761;28;20258;-68
2021/01/15 00:41:05;;;;;;;16.50;7.30;;;-1.00;99.90;;;;;;5011215;28;20222;-68
2021/01/15 00:43:33;;;;;;;13.70;6.20;;;-1.00;99.90;;;;;;5010982;28;20211;-68
2021/01/15 00:46:00;;;;;;;15.47;6.87;;;-1.00;99.90;;;;;;5011033;28;20217;-68
2021/01/15 00:48:27;;;;;;;18.33;7.20;;;-1.00;99.90;;;;;;5030823;28;20287;-68
2021/01/15 00:50:55;;;;;;;14.33;6.73;;;-1.00;99.90;;;;;;5014185;28;20297;-68
2021/01/15 00:53:23;;;;;;;14.23;6.50;;;-1.00;99.90;;;;;;4991737;28;20662;-68
2021/01/15 00:55:51;;;;;;;18.63;8.07;;;-1.00;99.90;;;;;;4975115;28;20208;-68
2021/01/15 00:58:19;;;;;;;15.33;7.10;;;-1.00;99.90;;;;;;4994527;28;20199;-68
2021/01/15 01:00:46;;;;;;;15.93;7.53;;;-1.00;99.90;;;;;;4994850;28;20534;-68
2021/01/15 01:03:25;;;;;;;18.87;7.37;;;-1.00;99.90;;;;;;5014191;28;20709;-68
2021/01/15 01:05:52;;;;;;;18.57;8.27;;;-1.10;99.90;;;;;;5073729;28;20204;-68
2021/01/15 01:08:20;;;;;;;17.27;6.97;;;-1.00;99.90;;;;;;5073971;28;20295;-68
2021/01/15 01:10:47;;;;;;;13.93;6.87;;;-1.10;99.90;;;;;;5073981;28;20212;-68
2021/01/15 01:13:14;;;;;;;18.33;7.50;;;-1.10;99.90;;;;;;5073739;28;20209;-67
2021/01/15 01:15:41;;;;;;;15.87;7.77;;;-1.00;99.90;;;;;;5053767;28;20320;-68
2021/01/15 01:18:08;;;;;;;15.27;5.90;;;-1.00;99.90;;;;;;5053769;28;20233;-67
2021/01/15 01:20:35;;;;;;;12.70;6.70;;;-1.00;99.90;;;;;;5037181;28;20574;-68
2021/01/15 01:23:02;;;;;;;14.77;6.93;;;-1.00;99.90;;;;;;5034456;28;20608;-68
2021/01/15 01:25:29;;;;;;;16.47;7.20;;;-1.00;99.90;;;;;;4957654;28;20198;-68
2021/01/15 01:27:56;;;;;;;13.80;6.63;;;-1.00;99.90;;;;;;4994374;28;20211;-68
2021/01/15 01:30:24;;;;;;;16.87;7.70;;;-0.90;99.90;;;;;;4974843;28;20673;-68
2021/01/15 01:32:50;;;;;;;15.87;7.47;;;-0.90;99.90;;;;;;4937497;29;20205;-68
2021/01/15 01:35:17;;;;;;;15.80;7.90;;;-0.90;99.90;;;;;;4936500;29;20232;-68
2021/01/15 01:37:44;;;;;;;17.33;7.63;;;-0.90;99.90;;;;;;4916973;29;20755;-68
2021/01/15 01:40:12;;;;;;;20.40;8.93;;;-0.90;99.90;;;;;;4917465;29;20207;-68
2021/01/15 01:42:40;;;;;;;18.80;8.73;;;-0.90;99.90;;;;;;4936102;29;20663;-68
2021/01/15 01:45:08;;;;;;;19.43;8.47;;;-1.00;99.90;;;;;;4931952;29;20278;-68
2021/01/15 01:47:35;;;;;;;13.97;6.50;;;-1.00;99.90;;;;;;4917828;29;20202;-68
2021/01/15 01:50:04;;;;;;;14.30;6.40;;;-1.10;99.90;;;;;;4936590;29;20668;-68
2021/01/15 01:52:31;;;;;;;14.73;7.20;;;-1.10;99.90;;;;;;4936135;29;20731;-68
2021/01/15 01:54:58;;;;;;;15.83;7.03;;;-1.10;99.90;;;;;;4936069;29;20691;-68
2021/01/15 01:57:25;;;;;;;12.33;6.63;;;-1.10;99.90;;;;;;4952846;29;20209;-68
2021/01/15 01:59:53;;;;;;;11.87;6.30;;;-1.10;99.90;;;;;;4958531;28;20206;-68
2021/01/15 02:02:20;;;;;;;12.57;6.33;;;-1.10;99.90;;;;;;5008643;28;20686;-68
2021/01/15 02:04:47;;;;;;;13.80;6.77;;;-1.10;99.90;;;;;;5002146;28;20198;-68
2021/01/15 02:07:14;;;;;;;15.70;7.20;;;-1.10;99.90;;;;;;5013252;28;20210;-68
2021/01/15 02:09:47;;;;;;;14.13;6.63;;;-1.20;99.90;;;;;;5010180;28;20263;-68
2021/01/15 02:12:27;;;;;;;15.13;7.13;;;-1.20;99.90;;;;;;5013671;28;20199;-68
2021/01/15 02:15:04;;;;;;;16.40;7.33;;;-1.20;99.90;;;;;;5073133;28;20217;-68
2021/01/15 02:17:38;;;;;;;15.60;6.30;;;-1.20;99.90;;;;;;5056228;28;20287;-68
2021/01/15 02:20:26;;;;;;;11.93;6.00;;;-1.20;99.90;;;;;;5073236;28;20296;-68
2021/01/15 02:23:05;;;;;;;10.93;5.63;;;-1.20;99.90;;;;;;5033382;28;20755;-68
2021/01/15 02:26:22;;;;;;;13.27;6.07;;;-1.20;99.90;;;;;;5032569;28;20202;-68
2021/01/15 02:29:04;;;;;;;13.10;5.83;;;-1.10;99.90;;;;;;4993792;28;20221;-68
2021/01/15 02:32:08;;;;;;;11.13;5.30;;;-1.10;99.90;;;;;;4973778;28;20263;-68
2021/01/15 02:34:56;;;;;;;12.30;5.50;;;-1.10;99.90;;;;;;4954390;28;20220;-68
2021/01/15 02:37:26;;;;;;;11.80;5.47;;;-1.00;99.90;;;;;;4935119;29;20242;-68
2021/01/15 02:40:02;;;;;;;11.30;5.67;;;-1.10;99.90;;;;;;4916225;29;20293;-68
2021/01/15 02:42:33;;;;;;;14.17;6.83;;;-1.00;99.90;;;;;;4935750;29;20637;-68
2021/01/15 02:45:02;;;;;;;14.27;6.63;;;-1.00;99.90;;;;;;4935600;29;20222;-68
2021/01/15 02:47:39;;;;;;;13.73;6.47;;;-1.10;99.90;;;;;;4935141;29;20209;-68
2021/01/15 02:50:11;;;;;;;17.47;8.33;;;-1.10;99.90;;;;;;4935579;29;20216;-68
2021/01/15 02:52:41;;;;;;;20.30;8.40;;;-1.10;99.90;;;;;;4934967;29;20213;-68
2021/01/15 02:55:10;;;;;;;14.17;6.67;;;-1.10;99.90;;;;;;4935033;29;20225;-68
2021/01/15 02:57:37;;;;;;;14.47;6.73;;;-1.20;99.90;;;;;;4934891;29;20233;-68
2021/01/15 03:00:06;;;;;;;13.23;6.37;;;-1.20;99.90;;;;;;4964669;28;20200;-68
2021/01/15 03:02:47;;;;;;;15.37;7.20;;;-1.20;99.90;;;;;;4982877;28;20235;-68
2021/01/15 03:05:20;;;;;;;18.37;8.47;;;-1.20;99.90;;;;;;4960773;28;20200;-68
2021/01/15 03:07:49;;;;;;;16.43;6.90;;;-1.20;99.90;;;;;;4987580;28;20211;-68
2021/01/15 03:10:19;;;;;;;14.97;7.57;;;-1.20;99.90;;;;;;5027341;28;20207;-68
2021/01/15 03:12:48;;;;;;;14.03;7.13;;;-1.20;99.90;;;;;;5008639;28;20199;-68
2021/01/15 03:15:16;;;;;;;13.30;6.77;;;-1.30;99.90;;;;;;4992719;28;20231;-68
2021/01/15 03:17:47;;;;;;;13.27;6.63;;;-1.30;99.90;;;;;;4992510;28;20291;-68
2021/01/15 03:20:16;;;;;;;13.00;6.77;;;-1.30;99.90;;;;;;4992485;28;20203;-68
2021/01/15 03:22:45;;;;;;;15.47;7.70;;;-1.30;99.90;;;;;;4976002;28;20246;-68
2021/01/15 03:25:13;;;;;;;17.07;7.83;;;-1.30;99.90;;;;;;4996469;28;20208;-68
2021/01/15 03:27:45;;;;;;;18.13;7.73;;;-1.30;99.90;;;;;;5053128;28;20205;-68
2021/01/15 03:30:15;;;;;;;23.03;9.33;;;-1.30;99.90;;;;;;5051582;28;20205;-68
2021/01/15 03:32:43;;;;;;;25.13;10.17;;;-1.30;99.90;;;;;;5012396;28;20214;-68
2021/01/15 03:35:22;;;;;;;22.27;9.00;;;-1.30;99.90;;;;;;5032611;28;20246;-68
2021/01/15 03:37:58;;;;;;;20.50;9.30;;;-1.30;99.90;;;;;;5051622;28;20234;-68
2021/01/15 03:40:25;;;;;;;19.90;9.50;;;-1.40;99.90;;;;;;5012270;28;20234;-68
2021/01/15 03:42:52;;;;;;;19.60;9.00;;;-1.30;99.90;;;;;;5012188;28;20199;-68
2021/01/15 03:45:19;;;;;;;21.73;8.50;;;-1.40;99.90;;;;;;5012288;28;20206;-68
2021/01/15 03:47:46;;;;;;;21.60;9.13;;;-1.40;99.90;;;;;;5011610;28;20207;-68
2021/01/15 03:50:14;;;;;;;23.63;9.60;;;-1.40;99.90;;;;;;4991885;28;20279;-67
2021/01/15 03:52:41;;;;;;;18.03;8.43;;;-1.40;99.90;;;;;;4991780;28;20294;-68
2021/01/15 03:55:10;;;;;;;18.77;8.30;;;-1.40;99.90;;;;;;4991714;28;20280;-68
2021/01/15 03:57:37;;;;;;;14.60;7.57;;;-1.40;99.90;;;;;;4992380;28;20267;-68
2021/01/15 04:00:06;;;;;;;14.87;6.97;;;-1.40;99.90;;;;;;4992045;28;20218;-68
2021/01/15 04:02:36;;;;;;;15.87;7.30;;;-1.40;99.90;;;;;;4991891;28;20661;-68
2021/01/15 04:05:03;;;;;;;14.60;7.20;;;-1.40;99.90;;;;;;4991744;28;20226;-68
2021/01/15 04:07:30;;;;;;;15.23;7.33;;;-1.30;99.90;;;;;;4999999;28;20210;-68
2021/01/15 04:09:57;;;;;;;15.43;7.67;;;-1.30;99.90;;;;;;5011910;28;20202;-68
2021/01/15 04:12:25;;;;;;;18.10;8.57;;;-1.20;99.90;;;;;;4972283;28;20204;-68
2021/01/15 04:14:52;;;;;;;22.10;8.77;;;-1.30;99.90;;;;;;4972525;28;20234;-68
2021/01/15 04:17:19;;;;;;;19.73;8.47;;;-1.30;99.90;;;;;;4991577;28;20207;-68
2021/01/15 04:19:45;;;;;;;18.03;7.70;;;-1.30;99.90;;;;;;4992397;28;20196;-68
2021/01/15 04:22:12;;;;;;;20.60;8.63;;;-1.30;99.90;;;;;;4991760;28;20200;-68
2021/01/15 04:24:39;;;;;;;20.40;9.13;;;-1.30;99.90;;;;;;4974840;28;20622;-68
2021/01/15 04:27:06;;;;;;;20.87;8.17;;;-1.30;99.90;;;;;;4964998;28;20283;-68
2021/01/15 04:29:35;;;;;;;18.47;7.97;;;-1.30;99.90;;;;;;4991832;28;20210;-68
2021/01/15 04:32:02;;;;;;;18.93;9.27;;;-1.30;99.90;;;;;;4992993;28;20203;-68
2021/01/15 04:34:30;;;;;;;17.60;8.30;;;-1.30;99.90;;;;;;5015054;28;20211;-67
2021/01/15 04:36:57;;;;;;;17.63;8.10;;;-1.30;99.90;;;;;;5031736;28;20242;-68
2021/01/15 04:39:24;;;;;;;16.67;8.13;;;-1.30;99.90;;;;;;4981023;28;20227;-68
2021/01/15 04:41:53;;;;;;;19.87;8.87;;;-1.20;99.90;;;;;;4959881;28;20216;-68
2021/01/15 04:44:20;;;;;;;18.53;8.60;;;-1.30;99.90;;;;;;5067250;28;20216;-68
2021/01/15 04:46:50;;;;;;;16.93;7.73;;;-1.30;99.90;;;;;;5054591;28;20205;-68
2021/01/15 04:49:23;;;;;;;21.63;8.97;;;-1.30;99.90;;;;;;4983867;28;20206;-67
2021/01/15 04:51:56;;;;;;;19.73;8.60;;;-1.30;99.90;;;;;;4975722;28;20204;-68
2021/01/15 04:54:35;;;;;;;22.47;9.60;;;-1.30;99.90;;;;;;4976300;28;20287;-68
2021/01/15 04:57:05;;;;;;;22.33;9.50;;;-1.30;99.90;;;;;;4956590;29;20599;-68
2021/01/15 04:59:39;;;;;;;24.63;9.27;;;-1.30;99.90;;;;;;4956550;29;20209;-68
2021/01/15 05:02:09;;;;;;;19.77;8.40;;;-1.30;99.90;;;;;;4956833;29;20564;-68
2021/01/15 05:04:36;;;;;;;18.73;8.47;;;-1.30;99.90;;;;;;4954242;29;20209;-68
2021/01/15 05:07:05;;;;;;;27.47;10.73;;;-1.30;99.90;;;;;;4936979;29;20648;-68
2021/01/15 05:09:42;;;;;;;23.50;9.43;;;-1.30;99.90;;;;;;4955990;28;20209;-68
2021/01/15 05:12:11;;;;;;;23.63;10.47;;;-1.40;99.90;;;;;;4936890;29;20229;-67
2021/01/15 05:14:39;;;;;;;22.87;9.23;;;-1.40;99.90;;;;;;4918037;29;20315;-68
2021/01/15 05:17:07;;;;;;;20.90;9.17;;;-1.40;99.90;;;;;;4910714;29;20362;-68
2021/01/15 05:19:39;;;;;;;20.40;9.03;;;-1.40;99.90;;;;;;4921410;29;20202;-67
2021/01/15 05:22:06;;;;;;;24.33;9.80;;;-1.50;99.90;;;;;;4947351;28;20204;-68
2021/01/15 05:24:33;;;;;;;19.97;8.90;;;-1.50;99.90;;;;;;4994670;28;20270;-68
2021/01/15 05:27:02;;;;;;;23.30;10.03;;;-1.50;99.90;;;;;;4994617;28;20308;-68
2021/01/15 05:29:29;;;;;;;19.00;9.30;;;-1.50;99.90;;;;;;4974979;28;20200;-68
2021/01/15 05:31:57;;;;;;;25.83;9.70;;;-1.50;99.90;;;;;;4975210;28;20240;-68
2021/01/15 05:34:26;;;;;;;22.07;9.60;;;-1.50;99.90;;;;;;4975466;28;20229;-68
2021/01/15 05:36:53;;;;;;;25.30;11.27;;;-1.60;99.90;;;;;;4974550;28;20474;-68
2021/01/15 05:39:22;;;;;;;25.03;10.20;;;-1.60;99.90;;;;;;4936380;29;20330;-67
2021/01/15 05:41:50;;;;;;;20.93;9.13;;;-1.60;99.90;;;;;;4936283;29;20253;-67
2021/01/15 05:44:28;;;;;;;18.83;8.27;;;-1.60;99.90;;;;;;4916673;29;20206;-67
2021/01/15 05:46:55;;;;;;;21.40;9.17;;;-1.70;99.90;;;;;;4936107;29;20257;-67
2021/01/15 05:49:22;;;;;;;22.33;9.40;;;-1.80;99.90;;;;;;4917130;29;20327;-67
2021/01/15 05:51:50;;;;;;;24.17;11.03;;;-1.70;99.90;;;;;;4898056;29;20203;-67
2021/01/15 05:54:30;;;;;;;27.53;10.93;;;-1.70;99.90;;;;;;4887428;29;20215;-67
2021/01/15 05:56:57;;;;;;;29.43;11.57;;;-1.70;99.90;;;;;;4878571;29;20208;-67
2021/01/15 05:59:25;;;;;;;28.40;12.13;;;-1.70;99.90;;;;;;4879264;29;20250;-67
2021/01/15 06:01:53;;;;;;;29.67;12.07;;;-1.70;99.90;;;;;;4879410;29;20295;-67
2021/01/15 06:04:34;;;;;;;32.40;12.73;;;-1.70;99.90;;;;;;4879478;29;20303;-67
2021/01/15 06:07:16;;;;;;;28.00;11.97;;;-1.80;99.90;;;;;;4872281;29;20215;-67
2021/01/15 06:09:45;;;;;;;28.57;11.73;;;-1.80;99.90;;;;;;4898044;29;20221;-67
2021/01/15 06:12:14;;;;;;;31.57;12.43;;;-1.80;99.90;;;;;;4897919;29;20211;-67
2021/01/15 06:14:49;;;;;;;35.23;11.77;;;-1.80;99.90;;;;;;4921072;29;20229;-67
2021/01/15 06:17:18;;;;;;;27.07;11.33;;;-1.80;99.90;;;;;;4948691;29;20213;-67
2021/01/15 06:19:49;;;;;;;27.63;11.07;;;-1.90;99.90;;;;;;4963821;28;20195;-68
2021/01/15 06:22:35;;;;;;;26.37;9.80;;;-2.00;99.90;;;;;;4935843;29;20198;-68
2021/01/15 06:25:16;;;;;;;23.50;9.47;;;-2.00;99.90;;;;;;4935711;29;20209;-68
2021/01/15 06:27:44;;;;;;;25.27;9.87;;;-2.10;99.90;;;;;;4969762;28;20616;-67
2021/01/15 06:30:14;;;;;;;22.03;9.70;;;-2.20;99.90;;;;;;4985886;28;20208;-68
2021/01/15 06:32:42;;;;;;;22.93;9.87;;;-2.20;99.90;;;;;;4974214;28;20306;-67
2021/01/15 06:35:22;;;;;;;24.20;8.93;;;-2.40;99.90;;;;;;4973657;28;20247;-67
2021/01/15 06:37:58;;;;;;;20.30;9.33;;;-2.40;99.90;;;;;;4989709;28;20246;-67
2021/01/15 06:40:31;;;;;;;18.43;8.70;;;-2.50;99.90;;;;;;5012820;28;20199;-67
2021/01/15 06:42:59;;;;;;;16.70;7.67;;;-2.60;99.90;;;;;;5012888;28;20261;-68
2021/01/15 06:45:36;;;;;;;18.17;8.17;;;-2.80;99.90;;;;;;5024834;28;20241;-67
2021/01/15 06:48:09;;;;;;;20.07;7.63;;;-2.90;99.90;;;;;;5012773;28;20210;-67
2021/01/15 06:50:38;;;;;;;14.93;7.33;;;-3.00;99.90;;;;;;5013364;28;20210;-67
2021/01/15 06:53:15;;;;;;;16.23;7.23;;;-3.20;99.90;;;;;;5013034;28;20207;-67
2021/01/15 06:55:45;;;;;;;14.10;6.93;;;-3.30;99.90;;;;;;5012726;28;20280;-67
2021/01/15 06:58:18;;;;;;;17.87;7.27;;;-3.40;99.90;;;;;;4992902;28;20559;-67
2021/01/15 07:01:05;;;;;;;18.83;8.20;;;-3.50;99.90;;;;;;5009302;28;20712;-67
2021/01/15 07:04:08;;;;;;;18.10;7.60;;;-3.50;99.90;;;;;;4934998;29;20202;-67
2021/01/15 07:06:35;;;;;;;17.73;7.70;;;-3.60;99.90;;;;;;4903115;29;20262;-67
2021/01/15 07:09:05;;;;;;;22.60;7.97;;;-3.70;99.90;;;;;;4934851;29;20206;-67
2021/01/15 07:11:32;;;;;;;17.13;7.90;;;-3.70;99.90;;;;;;4934912;29;20213;-67
2021/01/15 07:14:00;;;;;;;18.57;7.90;;;-3.80;99.90;;;;;;4915532;29;20210;-67
2021/01/15 07:16:29;;;;;;;16.40;7.23;;;-3.80;99.90;;;;;;4916044;29;20265;-67
2021/01/15 07:19:16;;;;;;;14.47;6.80;;;-3.80;99.90;;;;;;4915835;29;20202;-67
2021/01/15 07:22:09;;;;;;;20.00;7.80;;;-3.90;99.90;;;;;;4878323;29;20208;-67
2021/01/15 07:24:38;;;;;;;21.90;8.27;;;-3.50;99.90;;;;;;4897003;29;20207;-67
2021/01/15 07:27:07;;;;;;;21.07;7.37;;;-4.00;99.90;;;;;;4897255;29;20705;-67
2021/01/15 07:29:35;;;;;;;21.83;8.17;;;-4.00;99.90;;;;;;4861400;29;20220;-67
2021/01/15 07:32:07;;;;;;;17.00;7.23;;;-4.10;99.90;;;;;;4875237;29;20697;-67
2021/01/15 07:34:38;;;;;;;18.47;7.53;;;-4.10;99.90;;;;;;4906518;29;20222;-67
2021/01/15 07:37:21;;;;;;;16.30;7.77;;;-4.20;99.90;;;;;;4896342;29;20199;-68
2021/01/15 07:40:07;;;;;;;14.20;7.07;;;-3.90;99.90;;;;;;4896635;29;20211;-68
2021/01/15 07:42:44;;;;;;;15.77;6.47;;;-4.20;99.90;;;;;;4898150;29;20297;-68
2021/01/15 07:45:50;;;;;;;20.30;7.47;;;-4.20;99.90;;;;;;4968043;28;20200;-68
2021/01/15 07:48:16;;;;;;;19.23;7.80;;;-4.20;99.90;;;;;;5012253;28;20239;-68
2021/01/15 07:50:44;;;;;;;21.90;8.37;;;-4.10;99.90;;;;;;5011946;28;20194;-68
2021/01/15 07:53:27;;;;;;;20.10;7.47;;;-4.10;99.90;;;;;;5005485;28;20281;-68
2021/01/15 07:55:57;;;;;;;20.37;7.87;;;-4.10;99.90;;;;;;5036124;28;20232;-68
2021/01/15 07:58:25;;;;;;;22.07;7.90;;;-4.10;99.90;;;;;;5051621;28;20193;-67
2021/01/15 08:00:52;;;;;;;20.57;8.20;;;-4.00;99.90;;;;;;5051388;28;20205;-67
2021/01/15 08:03:19;;;;;;;21.57;8.07;;;-3.80;99.90;;;;;;5011672;28;20207;-68
2021/01/15 08:05:47;;;;;;;16.53;7.47;;;-3.70;99.90;;;;;;5011499;28;20637;-68
2021/01/15 08:08:16;;;;;;;23.47;9.23;;;-3.50;99.90;;;;;;5022174;28;20652;-68
2021/01/15 08:10:50;;;;;;;21.97;8.00;;;-3.40;99.90;;;;;;5011731;28;20327;-68
2021/01/15 08:13:22;;;;;;;22.23;8.40;;;-3.20;99.90;;;;;;4992112;28;20207;-68
2021/01/15 08:15:50;;;;;;;23.57;8.20;;;-3.00;99.90;;;;;;4992034;28;20224;-68
2021/01/15 08:18:17;;;;;;;19.83;7.60;;;-2.80;99.90;;;;;;4991980;28;20218;-68
2021/01/15 08:20:46;;;;;;;18.97;7.20;;;-2.60;99.90;;;;;;4990692;28;20250;-68
2021/01/15 08:23:21;;;;;;;17.80;7.80;;;-2.40;99.90;;;;;;4975812;28;20204;-67
2021/01/15 08:25:50;;;;;;;14.20;6.90;;;-2.30;99.90;;;;;;4995314;28;20203;-68
2021/01/15 08:28:17;;;;;;;18.93;7.13;;;-2.20;99.90;;;;;;5011979;28;20211;-68
2021/01/15 08:31:01;;;;;;;18.07;7.00;;;-2.00;99.90;;;;;;4992198;28;20748;-68
2021/01/15 08:33:28;;;;;;;16.17;7.00;;;-2.00;99.90;;;;;;5016559;28;20203;-68
2021/01/15 08:35:58;;;;;;;13.80;6.10;;;-1.80;99.90;;;;;;5011213;28;20234;-68
2021/01/15 08:38:29;;;;;;;14.00;6.40;;;-1.70;99.90;;;;;;4991369;28;20318;-68
2021/01/15 08:40:56;;;;;;;14.47;6.53;;;-1.60;99.90;;;;;;4994750;28;20549;-68
2021/01/15 08:43:25;;;;;;;16.93;6.93;;;-1.50;99.90;;;;;;5011210;28;20199;-68
2021/01/15 08:45:52;;;;;;;20.20;7.97;;;-1.30;99.90;;;;;;4991995;28;20210;-68
2021/01/15 08:48:21;;;;;;;16.40;6.93;;;-1.30;99.90;;;;;;4992059;28;20203;-68
2021/01/15 08:50:49;;;;;;;15.70;6.60;;;-1.20;99.90;;;;;;4991351;28;20670;-68
2021/01/15 08:53:23;;;;;;;17.27;6.80;;;-1.10;99.90;;;;;;4991329;28;20650;-68
2021/01/15 08:55:54;;;;;;;18.47;7.53;;;-1.00;99.90;;;;;;4991527;28;20234;-67
2021/01/15 08:58:21;;;;;;;19.50;9.27;;;-1.00;99.90;;;;;;4967925;28;20791;-66
2021/01/15 09:00:48;;;;;;;23.00;9.97;;;-1.20;99.90;;;;;;4935233;29;20221;-68
2021/01/15 09:03:18;;;;;;;31.07;12.20;;;-1.40;99.90;;;;;;4952439;28;20209;-67
2021/01/15 09:05:47;;;;;;;39.07;14.33;;;-1.60;99.90;;;;;;4933345;29;20536;-67
2021/01/15 09:08:16;;;;;;;47.63;15.10;;;-1.80;99.90;;;;;;4936583;29;20277;-67
2021/01/15 09:10:48;;;;;;;37.00;13.17;;;-1.90;99.90;;;;;;4952596;28;20734;-67
2021/01/15 09:13:16;;;;;;;40.00;13.63;;;-2.10;99.90;;;;;;4933477;29;20844;-67
2021/01/15 09:15:49;;;;;;;33.30;11.63;;;-2.20;99.90;;;;;;4933322;29;20691;-67
2021/01/15 09:18:16;;;;;;;29.30;10.73;;;-2.10;99.90;;;;;;4954184;28;20209;-67
2021/01/15 09:20:42;;;;;;;33.40;11.30;;;-2.00;99.90;;;;;;4974945;28;20678;-67
2021/01/15 09:23:10;;;;;;;28.90;10.73;;;-2.00;99.90;;;;;;4994353;28;20646;-67
2021/01/15 09:25:37;;;;;;;29.87;11.77;;;-1.90;99.90;;;;;;4995250;28;20223;-67
2021/01/15 09:28:04;;;;;;;24.20;10.07;;;-1.70;99.90;;;;;;4994529;28;20278;-67
2021/01/15 09:30:31;;;;;;;26.83;10.10;;;-1.50;99.90;;;;;;5013443;28;20301;-68
2021/01/15 09:32:59;;;;;;;20.30;9.07;;;-1.40;99.90;;;;;;5014248;28;20229;-68
2021/01/15 09:35:25;;;;;;;16.13;7.53;;;-1.20;99.90;;;;;;4995138;28;20224;-68
2021/01/15 09:37:53;;;;;;;22.97;9.57;;;-1.00;99.90;;;;;;5013554;28;20227;-67
2021/01/15 09:40:21;;;;;;;23.27;8.60;;;-0.90;99.90;;;;;;4994266;28;20203;-68
2021/01/15 09:42:49;;;;;;;20.17;8.40;;;-0.80;99.90;;;;;;4994377;28;20685;-67
2021/01/15 09:45:16;;;;;;;23.40;8.53;;;-0.80;99.90;;;;;;4976553;28;20634;-67
2021/01/15 09:47:45;;;;;;;21.37;8.17;;;-0.80;99.90;;;;;;5011781;28;20211;-68
2021/01/15 09:50:13;;;;;;;17.57;6.63;;;-0.80;99.90;;;;;;4994208;28;20214;-68
2021/01/15 09:52:41;;;;;;;15.80;6.60;;;-0.80;99.90;;;;;;5011284;28;20224;-67
2021/01/15 09:55:08;;;;;;;14.90;6.00;;;-0.70;99.90;;;;;;5013903;28;20223;-67
2021/01/15 09:57:43;;;;;;;14.27;6.30;;;-0.50;99.90;;;;;;4974492;28;20225;-68
2021/01/15 10:00:12;;;;;;;13.17;6.07;;;-0.30;99.90;;;;;;4974412;28;20215;-67
2021/01/15 10:02:38;;;;;;;14.57;5.73;;;-0.20;99.90;;;;;;4974489;28;20234;-68
2021/01/15 10:05:06;;;;;;;13.97;5.73;;;-0.20;99.90;;;;;;4954926;29;20320;-68
2021/01/15 10:07:33;;;;;;;12.30;5.43;;;-0.10;99.90;;;;;;4938908;29;20574;-67
2021/01/15 10:09:59;;;;;;;9.97;4.50;;;0.10;99.90;;;;;;4903058;29;20608;-68
2021/01/15 10:12:26;;;;;;;12.53;5.70;;;0.20;99.90;;;;;;4911024;29;20211;-68
2021/01/15 10:14:54;;;;;;;11.07;4.73;;;0.20;99.90;;;;;;4935680;29;20803;-68
2021/01/15 10:17:20;;;;;;;8.37;4.13;;;0.30;99.90;;;;;;4959066;28;20193;-67
2021/01/15 10:19:47;;;;;;;9.50;4.07;;;0.40;99.90;;;;;;4993246;28;20266;-67
2021/01/15 10:22:14;;;;;;;8.60;3.97;;;0.60;99.90;;;;;;5012513;28;20251;-68
2021/01/15 10:24:41;;;;;;;8.17;4.20;;;0.70;99.90;;;;;;4977383;28;20226;-68
2021/01/15 10:27:08;;;;;;;6.83;3.50;;;0.90;99.90;;;;;;4979196;28;20299;-69
2021/01/15 10:29:35;;;;;;;6.57;3.50;;;1.00;99.90;;;;;;4992694;28;20242;-67
2021/01/15 10:32:03;;;;;;;6.43;3.40;;;1.10;99.90;;;;;;4993314;28;20211;-67
2021/01/15 10:34:30;;;;;;;7.33;3.10;;;1.20;99.90;;;;;;4993107;28;20646;-68
2021/01/15 10:36:58;;;;;;;6.70;3.53;;;1.30;99.90;;;;;;5018027;28;20557;-67
2021/01/15 10:39:24;;;;;;;9.37;4.10;;;1.30;99.90;;;;;;5052632;28;20658;-68
2021/01/15 10:41:52;;;;;;;10.53;4.17;;;1.40;99.90;;;;;;5052071;28;20198;-68
2021/01/15 10:44:20;;;;;;;11.83;5.47;;;1.40;99.90;;;;;;5032323;28;20198;-67
2021/01/15 10:46:50;;;;;;;11.80;5.67;;;1.30;99.90;;;;;;5015601;28;20242;-68
2021/01/15 10:49:19;;;;;;;11.07;5.07;;;1.30;99.90;;;;;;5012557;28;20218;-68
2021/01/15 10:51:47;;;;;;;10.60;4.80;;;1.30;99.90;;;;;;5012978;28;20720;-68
2021/01/15 10:54:14;;;;;;;8.63;4.80;;;1.30;99.90;;;;;;5012595;28;20230;-68
2021/01/15 10:56:42;;;;;;;9.63;4.97;;;1.40;99.90;;;;;;5012880;28;20295;-68
2021/01/15 10:59:09;;;;;;;9.07;4.37;;;1.40;99.90;;;;;;5006972;28;20214;-68
2021/01/15 11:01:37;;;;;;;10.37;4.97;;;1.40;99.90;;;;;;5009353;28;20198;-68
2021/01/15 11:04:06;;;;;;;9.17;5.13;;;1.40;99.90;;;;;;5032169;28;20198;-68
2021/01/15 11:06:36;;;;;;;11.43;5.43;;;1.40;99.90;;;;;;5052603;28;20201;-68
2021/01/15 11:09:03;;;;;;;7.33;3.90;;;1.50;99.90;;;;;;5051954;28;20242;-68
2021/01/15 11:11:29;;;;;;;10.53;4.67;;;1.60;99.90;;;;;;5031704;28;20194;-68
2021/01/15 11:13:56;;;;;;;8.33;4.20;;;1.60;99.90;;;;;;5012586;28;20285;-68
2021/01/15 11:16:25;;;;;;;8.43;4.30;;;1.60;99.90;;;;;;5012657;28;20321;-68
2021/01/15 11:18:52;;;;;;;10.90;4.57;;;1.60;99.90;;;;;;5012169;28;20207;-68
2021/01/15 11:21:24;;;;;;;7.13;4.00;;;1.60;99.90;;;;;;4998381;28;20206;-68
2021/01/15 11:23:51;;;;;;;7.07;3.90;;;1.70;99.90;;;;;;4992606;28;20241;-68
2021/01/15 11:26:24;;;;;;;7.47;3.63;;;1.70;99.90;;;;;;4993147;28;20238;-68
2021/01/15 11:28:51;;;;;;;11.10;4.40;;;1.60;99.90;;;;;;4992436;28;20208;-68
2021/01/15 11:31:18;;;;;;;8.67;4.40;;;1.60;99.90;;;;;;4992120;28;20246;-69
2021/01/15 11:33:44;;;;;;;8.60;4.17;;;1.30;99.90;;;;;;4954616;28;20204;-69
2021/01/15 11:36:11;;;;;;;9.00;4.80;;;1.40;99.90;;;;;;4935401;28;20225;-68
2021/01/15 11:38:38;;;;;;;7.70;4.20;;;1.40;99.90;;;;;;4916216;29;20238;-68
2021/01/15 11:41:06;;;;;;;10.17;4.40;;;1.50;99.90;;;;;;4932030;29;20244;-69
2021/01/15 11:43:34;;;;;;;8.70;3.67;;;1.40;99.90;;;;;;4953205;28;20215;-68
2021/01/15 11:46:02;;;;;;;6.03;3.10;;;1.30;99.90;;;;;;4953350;28;20212;-69
2021/01/15 11:48:30;;;;;;;8.47;3.50;;;1.30;99.90;;;;;;4958882;28;20223;-68
2021/01/15 11:50:57;;;;;;;6.87;3.60;;;1.30;99.90;;;;;;5009384;28;20250;-69
2021/01/15 11:53:24;;;;;;;7.97;3.90;;;1.30;99.90;;;;;;5030162;28;20203;-69
2021/01/15 11:55:51;;;;;;;10.50;4.50;;;1.30;99.90;;;;;;4992411;28;20234;-69
2021/01/15 11:58:23;;;;;;;8.50;4.13;;;1.20;99.90;;;;;;4991868;28;20211;-69
2021/01/15 12:00:50;;;;;;;14.23;5.90;;;1.20;99.90;;;;;;4992619;28;20283;-69
2021/01/15 12:03:16;;;;;;;19.90;7.10;;;1.10;99.90;;;;;;4991955;28;20211;-69
2021/01/15 12:05:44;;;;;;;16.80;6.37;;;1.00;99.90;;;;;;5027195;28;20686;-69
2021/01/15 12:08:10;;;;;;;17.57;6.33;;;0.90;99.90;;;;;;5011362;28;20563;-69
2021/01/15 12:10:37;;;;;;;19.07;6.60;;;0.90;99.90;;;;;;5011562;28;20211;-69
2021/01/15 12:13:04;;;;;;;17.63;7.37;;;0.90;99.90;;;;;;5012024;28;20281;-69
2021/01/15 12:15:31;;;;;;;18.50;7.23;;;0.80;99.90;;;;;;4994279;28;20224;-69
2021/01/15 12:17:58;;;;;;;20.23;8.80;;;0.90;99.90;;;;;;4991971;28;20200;-69
2021/01/15 12:20:26;;;;;;;29.80;10.60;;;0.90;99.90;;;;;;4991906;28;20267;-69
2021/01/15 12:22:52;;;;;;;26.63;10.60;;;0.80;99.90;;;;;;4952805;29;20205;-69
2021/01/15 12:25:19;;;;;;;27.57;10.30;;;0.70;99.90;;;;;;4917190;29;20705;-69
2021/01/15 12:27:46;;;;;;;26.27;9.77;;;0.70;99.90;;;;;;4948460;29;20643;-68
2021/01/15 12:30:15;;;;;;;24.57;9.77;;;0.70;99.90;;;;;;4933711;29;20210;-69
2021/01/15 12:32:43;;;;;;;19.93;9.43;;;0.70;99.90;;;;;;4933933;29;20218;-68
2021/01/15 12:35:11;;;;;;;24.77;9.00;;;0.70;99.90;;;;;;4938501;29;20229;-68
2021/01/15 12:37:38;;;;;;;21.40;9.13;;;0.60;99.90;;;;;;4971652;28;20327;-68
2021/01/15 12:40:07;;;;;;;24.80;8.90;;;0.60;99.90;;;;;;4933532;29;20253;-68
2021/01/15 12:42:34;;;;;;;28.33;10.33;;;0.60;99.90;;;;;;4933662;29;20226;-68
2021/01/15 12:45:00;;;;;;;29.67;11.03;;;0.50;99.90;;;;;;4933672;29;20210;-68
2021/01/15 12:47:27;;;;;;;27.47;10.37;;;0.40;99.90;;;;;;4933457;29;20318;-68
2021/01/15 12:49:55;;;;;;;22.97;9.50;;;0.40;99.90;;;;;;4933437;29;20228;-69
2021/01/15 12:52:21;;;;;;;24.43;9.57;;;0.40;99.90;;;;;;4933912;29;20214;-69